Time;durP1;ratioP1;P1;durP2;ratioP2;P2;SDS_P1;SDS_P2;PMS_P1;PMS_P2;Temp;Humidity;BMP_temperature;BMP_pressure;BME280_temperature;BME280_humidity;BME280_pressure;Samples;Min_cycle;Max_cycle;Signal;HPM_P1;HPM_P2
2022/01/18 00:01:29;;;;;;;35.67;9.27;;;5.90;99.90;;;;;;5074911;28;20725;-67
2022/01/18 00:03:55;;;;;;;26.97;9.27;;;5.90;99.90;;;;;;5073049;28;20174;-67
2022/01/18 00:06:21;;;;;;;16.40;7.23;;;5.90;99.90;;;;;;5074241;28;20186;-67
2022/01/18 00:08:47;;;;;;;20.30;8.80;;;5.90;99.90;;;;;;5074448;28;20699;-67
2022/01/18 00:11:15;;;;;;;24.27;8.53;;;5.90;99.90;;;;;;5072967;28;20212;-67
2022/01/18 00:13:44;;;;;;;21.93;7.87;;;5.90;99.90;;;;;;5074580;28;20239;-64
2022/01/18 00:16:31;;;;;;;19.57;7.60;;;5.90;99.90;;;;;;5074170;28;20251;-64
2022/01/18 00:19:01;;;;;;;15.67;7.50;;;5.90;99.90;;;;;;5074142;28;20153;-64
2022/01/18 00:24:11;;;;;;;19.90;7.27;;;5.90;99.90;;;;;;5074016;28;20204;-64
2022/01/18 00:26:37;;;;;;;13.40;6.83;;;6.00;99.90;;;;;;5073778;28;20612;-67
2022/01/18 00:29:10;;;;;;;21.90;7.33;;;5.90;99.90;;;;;;5073871;28;20180;-67
2022/01/18 00:31:48;;;;;;;18.17;7.13;;;5.90;99.90;;;;;;5072577;28;20604;-67
2022/01/18 00:39:12;;;;;;;29.83;8.90;;;5.90;99.90;;;;;;5075616;28;20166;-67
2022/01/18 00:41:39;;;;;;;18.63;8.50;;;5.90;99.90;;;;;;5074309;28;20197;-67
2022/01/18 00:44:06;;;;;;;30.40;8.87;;;5.90;99.90;;;;;;5073817;28;20673;-64
2022/01/18 00:46:32;;;;;;;22.17;8.50;;;5.90;99.90;;;;;;5073598;28;20194;-65
2022/01/18 00:49:01;;;;;;;21.50;8.20;;;5.90;99.90;;;;;;5073787;28;20201;-64
2022/01/18 00:51:31;;;;;;;27.47;9.17;;;5.80;99.90;;;;;;5074011;28;20261;-65
2022/01/18 00:53:58;;;;;;;22.60;8.43;;;5.80;99.90;;;;;;5073533;28;20315;-67
2022/01/18 00:56:28;;;;;;;13.93;7.67;;;5.80;99.90;;;;;;5073552;28;20189;-66
2022/01/18 00:58:54;;;;;;;26.83;8.73;;;5.80;99.90;;;;;;5073933;28;20177;-67
2022/01/18 01:01:22;;;;;;;29.27;9.17;;;5.80;99.90;;;;;;5073308;28;20698;-67
2022/01/18 01:03:49;;;;;;;20.50;8.43;;;5.70;99.90;;;;;;5073618;28;20155;-64
2022/01/18 01:06:15;;;;;;;23.40;8.40;;;5.80;99.90;;;;;;5073336;28;20181;-67
2022/01/18 01:08:41;;;;;;;24.90;9.17;;;5.70;99.90;;;;;;5072446;28;20180;-67
2022/01/18 01:11:09;;;;;;;23.93;9.00;;;5.80;99.90;;;;;;5073695;28;20178;-65
2022/01/18 01:13:37;;;;;;;22.37;8.27;;;5.80;99.90;;;;;;5073245;28;20581;-64
2022/01/18 01:45:34;;;;;;;19.67;7.80;;;5.80;99.90;;;;;;5073362;28;20713;-66
2022/01/18 01:48:00;;;;;;;25.37;8.40;;;5.80;99.90;;;;;;5073139;28;20190;-67
2022/01/18 01:50:39;;;;;;;15.67;7.93;;;5.80;99.90;;;;;;5073389;28;20243;-67
2022/01/18 01:53:05;;;;;;;23.33;8.23;;;5.80;99.90;;;;;;5071617;28;20170;-66
2022/01/18 01:55:30;;;;;;;26.27;8.90;;;5.80;99.90;;;;;;5071542;28;20280;-67
2022/01/18 01:57:56;;;;;;;22.23;8.27;;;5.80;99.90;;;;;;5072539;28;20198;-66
2022/01/18 02:00:22;;;;;;;20.17;8.30;;;5.80;99.90;;;;;;5072715;28;20531;-66
2022/01/18 02:02:48;;;;;;;32.43;8.27;;;5.80;99.90;;;;;;5072757;28;20198;-66
2022/01/18 02:05:15;;;;;;;25.77;8.87;;;5.80;99.90;;;;;;5072694;28;20273;-67
2022/01/18 02:07:41;;;;;;;27.83;8.43;;;5.80;99.90;;;;;;5072690;28;20170;-67
2022/01/18 02:10:08;;;;;;;17.07;8.67;;;5.80;99.90;;;;;;5071336;28;20221;-67
2022/01/18 02:12:34;;;;;;;28.47;8.73;;;5.80;99.90;;;;;;5072732;28;20174;-67
2022/01/18 02:15:09;;;;;;;21.43;8.60;;;5.80;99.90;;;;;;5072509;28;20197;-67
2022/01/18 02:23:13;;;;;;;20.47;8.23;;;5.80;99.90;;;;;;5076120;28;20646;-67
2022/01/18 02:25:38;;;;;;;23.20;9.80;;;5.80;99.90;;;;;;5075922;28;20194;-67
2022/01/18 02:28:04;;;;;;;22.97;8.33;;;5.80;99.90;;;;;;5075945;28;20594;-68
2022/01/18 02:30:30;;;;;;;22.20;8.87;;;5.80;99.90;;;;;;5057924;28;20216;-66
2022/01/18 02:32:56;;;;;;;22.03;9.07;;;5.80;99.90;;;;;;5074737;28;20266;-67
2022/01/18 02:35:21;;;;;;;19.00;8.13;;;5.80;99.90;;;;;;5075769;28;20198;-66
2022/01/18 02:37:54;;;;;;;17.17;8.00;;;5.80;99.90;;;;;;5075986;28;20205;-67
2022/01/18 02:40:20;;;;;;;22.03;8.60;;;5.80;99.90;;;;;;5075912;28;20245;-67
2022/01/18 02:42:56;;;;;;;20.23;8.70;;;5.80;99.90;;;;;;5075820;28;20185;-67
2022/01/18 02:45:22;;;;;;;17.80;8.30;;;5.80;99.90;;;;;;5075997;28;20197;-67
2022/01/18 02:47:50;;;;;;;16.53;9.40;;;5.80;99.90;;;;;;5075675;28;20185;-67
2022/01/18 02:50:17;;;;;;;23.07;8.80;;;5.80;99.90;;;;;;5076150;28;20606;-67
2022/01/18 02:52:42;;;;;;;26.93;9.40;;;5.70;99.90;;;;;;5075761;28;20185;-67
2022/01/18 02:55:09;;;;;;;18.40;9.27;;;5.70;99.90;;;;;;5075462;28;20190;-67
2022/01/18 02:57:43;;;;;;;18.37;9.10;;;5.70;99.90;;;;;;5075477;28;20643;-67
2022/01/18 03:00:27;;;;;;;29.33;8.63;;;5.70;99.90;;;;;;5074153;28;20204;-67
2022/01/18 03:05:37;;;;;;;25.43;11.00;;;5.70;99.90;;;;;;5078095;28;20209;-67
2022/01/18 03:08:03;;;;;;;25.37;10.20;;;5.70;99.90;;;;;;5075264;28;20174;-67
2022/01/18 03:10:28;;;;;;;23.70;10.20;;;5.70;99.90;;;;;;5076085;28;20747;-71
2022/01/18 03:12:54;;;;;;;27.83;10.83;;;5.70;99.90;;;;;;5074274;28;20178;-64
2022/01/18 03:15:20;;;;;;;26.93;11.40;;;5.70;99.90;;;;;;5075087;28;20229;-65
2022/01/18 03:17:46;;;;;;;26.33;11.97;;;5.60;99.90;;;;;;5075231;28;20217;-65
2022/01/18 03:20:15;;;;;;;35.33;11.70;;;5.60;99.90;;;;;;5073777;28;20212;-65
2022/01/18 03:22:41;;;;;;;23.17;10.07;;;5.60;99.90;;;;;;5074941;28;20162;-65
2022/01/18 03:30:23;;;;;;;14.50;8.77;;;5.60;99.90;;;;;;5074213;28;20162;-65
2022/01/18 03:32:48;;;;;;;24.80;10.80;;;5.60;99.90;;;;;;5074765;28;20174;-65
2022/01/18 03:35:14;;;;;;;26.60;11.17;;;5.60;99.90;;;;;;5074691;28;20197;-65
2022/01/18 03:37:42;;;;;;;24.40;10.60;;;5.60;99.90;;;;;;5074764;28;20530;-65
2022/01/18 03:40:09;;;;;;;18.67;9.50;;;5.60;99.90;;;;;;5073252;28;20224;-65
2022/01/18 03:42:43;;;;;;;28.50;12.47;;;5.60;99.90;;;;;;5074543;28;20270;-65
2022/01/18 03:45:15;;;;;;;20.40;10.83;;;5.60;99.90;;;;;;5074942;28;20185;-65
2022/01/18 03:47:42;;;;;;;21.83;12.40;;;5.60;99.90;;;;;;5074725;28;20543;-65
2022/01/18 03:50:10;;;;;;;30.93;11.93;;;5.60;99.90;;;;;;5074431;28;20534;-65
2022/01/18 03:52:36;;;;;;;27.43;12.43;;;5.60;99.90;;;;;;5074373;28;20185;-65
2022/01/18 03:55:03;;;;;;;30.80;12.20;;;5.60;99.90;;;;;;5074288;28;20189;-65
2022/01/18 03:57:29;;;;;;;28.20;13.90;;;5.60;99.90;;;;;;5074269;28;20173;-65
2022/01/18 03:59:55;;;;;;;28.00;13.90;;;5.60;99.90;;;;;;5074180;28;20178;-65
2022/01/18 04:02:21;;;;;;;29.13;14.07;;;5.60;99.90;;;;;;5074177;28;20170;-65
2022/01/18 04:04:47;;;;;;;34.77;13.57;;;5.60;99.90;;;;;;5074100;28;20198;-65
2022/01/18 04:07:13;;;;;;;35.20;14.60;;;5.60;99.90;;;;;;5072763;28;20654;-65
2022/01/18 04:09:39;;;;;;;36.00;14.73;;;5.60;99.90;;;;;;5074196;28;20561;-65
2022/01/18 04:12:05;;;;;;;40.97;16.03;;;5.60;99.90;;;;;;5074556;28;20177;-65
2022/01/18 04:14:31;;;;;;;45.03;16.20;;;5.60;99.90;;;;;;5072584;28;20711;-65
2022/01/18 04:27:38;;;;;;;33.73;14.67;;;5.60;99.90;;;;;;5074059;28;20243;-65
2022/01/18 04:30:05;;;;;;;42.93;15.07;;;5.60;99.90;;;;;;5074340;28;20651;-65
2022/01/18 04:32:31;;;;;;;32.27;16.57;;;5.60;99.90;;;;;;5073770;28;20173;-65
2022/01/18 04:34:57;;;;;;;38.73;16.37;;;5.60;99.90;;;;;;5072258;28;20198;-65
2022/01/18 04:37:23;;;;;;;35.00;15.63;;;5.70;99.90;;;;;;5073915;28;20178;-65
2022/01/18 04:39:49;;;;;;;34.73;14.20;;;5.60;99.90;;;;;;5073482;28;20185;-65
2022/01/18 04:42:35;;;;;;;33.47;15.70;;;5.70;99.90;;;;;;5073566;28;20275;-64
2022/01/18 04:50:44;;;;;;;40.33;16.97;;;5.70;99.90;;;;;;5061353;28;20193;-65
2022/01/18 04:53:09;;;;;;;37.57;16.67;;;5.70;99.90;;;;;;5073417;28;20170;-65
2022/01/18 04:55:36;;;;;;;37.57;16.50;;;5.70;99.90;;;;;;5073347;28;20194;-67
2022/01/18 04:58:02;;;;;;;35.80;17.80;;;5.70;99.90;;;;;;5072172;28;20182;-65
2022/01/18 05:00:28;;;;;;;42.80;15.97;;;5.70;99.90;;;;;;5072237;28;20209;-65
2022/01/18 05:02:54;;;;;;;45.23;18.23;;;5.70;99.90;;;;;;5072125;28;20230;-71
2022/01/18 05:05:30;;;;;;;40.10;16.53;;;5.70;99.90;;;;;;5073195;28;20670;-65
2022/01/18 05:07:59;;;;;;;41.60;18.00;;;5.70;99.90;;;;;;5073530;28;20188;-65
2022/01/18 05:10:28;;;;;;;47.03;17.70;;;5.70;99.90;;;;;;5073252;28;20245;-64
2022/01/18 05:12:56;;;;;;;39.23;17.87;;;5.70;99.90;;;;;;5073480;28;20253;-64
2022/01/18 05:23:07;;;;;;;39.47;18.47;;;5.70;99.90;;;;;;5073408;28;20681;-65
2022/01/18 05:25:33;;;;;;;53.50;17.83;;;5.70;99.90;;;;;;5073370;28;20190;-64
2022/01/18 05:28:01;;;;;;;40.70;16.83;;;5.70;99.90;;;;;;5072995;28;20190;-64
2022/01/18 05:30:28;;;;;;;46.43;16.47;;;5.70;99.90;;;;;;5071709;28;20178;-64
2022/01/18 05:32:55;;;;;;;34.93;16.20;;;5.70;99.90;;;;;;5073371;28;20170;-65
2022/01/18 05:35:21;;;;;;;38.67;16.77;;;5.70;99.90;;;;;;5072968;28;20197;-65
2022/01/18 05:37:48;;;;;;;44.43;16.87;;;5.70;99.90;;;;;;5073097;28;20224;-64
2022/01/18 05:40:15;;;;;;;41.87;16.90;;;5.70;99.90;;;;;;5073214;28;20770;-64
2022/01/18 05:42:41;;;;;;;40.57;17.60;;;5.70;99.90;;;;;;5073129;28;20231;-65
2022/01/18 05:45:08;;;;;;;47.23;17.10;;;5.70;99.90;;;;;;5071703;28;20193;-65
2022/01/18 05:47:35;;;;;;;42.97;16.73;;;5.70;99.90;;;;;;5072010;28;20178;-66
2022/01/18 05:50:01;;;;;;;38.70;15.70;;;5.60;99.90;;;;;;5073161;28;20249;-66
2022/01/18 05:52:27;;;;;;;38.33;16.13;;;5.70;99.90;;;;;;5072037;28;20223;-66
2022/01/18 05:54:53;;;;;;;36.77;16.03;;;5.70;99.90;;;;;;5075982;28;20189;-64
2022/01/18 05:57:19;;;;;;;39.53;17.10;;;5.60;99.90;;;;;;5077940;28;20217;-65
2022/01/18 05:59:46;;;;;;;40.17;15.70;;;5.60;99.90;;;;;;5077182;28;20724;-65
2022/01/18 06:02:18;;;;;;;29.67;15.23;;;5.60;99.90;;;;;;5077414;28;20174;-65
2022/01/18 06:07:28;;;;;;;36.90;16.63;;;5.60;99.90;;;;;;5076836;28;20291;-66
2022/01/18 06:09:56;;;;;;;43.13;16.97;;;5.60;99.90;;;;;;5076551;28;20174;-65
2022/01/18 06:12:26;;;;;;;41.50;17.20;;;5.60;99.90;;;;;;5076544;28;20170;-65
2022/01/18 06:14:52;;;;;;;38.00;16.67;;;5.60;99.90;;;;;;5076499;28;20263;-66
2022/01/18 06:17:18;;;;;;;41.57;16.33;;;5.60;99.90;;;;;;5076471;28;20658;-66
2022/01/18 06:19:44;;;;;;;38.37;17.60;;;5.60;99.90;;;;;;5079193;28;20627;-65
2022/01/18 06:22:10;;;;;;;32.87;17.70;;;5.60;99.90;;;;;;5077236;28;20241;-64
2022/01/18 06:24:36;;;;;;;41.73;16.97;;;5.60;99.90;;;;;;5076563;28;20525;-65
2022/01/18 06:27:01;;;;;;;33.17;16.27;;;5.60;99.90;;;;;;5076574;28;20194;-65
2022/01/18 06:29:27;;;;;;;33.80;15.70;;;5.60;99.90;;;;;;5076551;28;20700;-64
2022/01/18 06:31:53;;;;;;;31.27;14.90;;;5.60;99.90;;;;;;5076452;28;20174;-64
2022/01/18 06:34:19;;;;;;;26.67;14.30;;;5.60;99.90;;;;;;5076319;28;20170;-65
2022/01/18 06:36:45;;;;;;;33.13;15.73;;;5.60;99.90;;;;;;5075040;28;20776;-64
2022/01/18 06:39:11;;;;;;;30.90;14.13;;;5.60;99.90;;;;;;5077024;28;20185;-65
2022/01/18 06:41:37;;;;;;;35.00;15.10;;;5.60;99.90;;;;;;5076144;28;20284;-64
2022/01/18 06:44:03;;;;;;;37.87;15.23;;;5.60;99.90;;;;;;5074793;28;20600;-65
2022/01/18 06:46:29;;;;;;;32.87;15.63;;;5.60;99.90;;;;;;5074826;28;20204;-64
2022/01/18 06:48:55;;;;;;;30.27;13.40;;;5.60;99.90;;;;;;5074858;28;20546;-64
2022/01/18 06:51:21;;;;;;;31.77;15.33;;;5.60;99.90;;;;;;5075816;28;20189;-64
2022/01/18 06:53:48;;;;;;;26.30;13.60;;;5.60;99.90;;;;;;5076307;28;20205;-64
2022/01/18 06:56:16;;;;;;;26.03;13.47;;;5.60;99.90;;;;;;5074269;28;20678;-64
2022/01/18 06:58:42;;;;;;;32.77;14.60;;;5.60;99.90;;;;;;5076019;28;20207;-65
2022/01/18 07:01:10;;;;;;;27.77;14.87;;;5.60;99.90;;;;;;5075580;28;20198;-65
2022/01/18 07:03:36;;;;;;;34.17;15.27;;;5.60;99.90;;;;;;5075674;28;20209;-65
2022/01/18 07:06:01;;;;;;;42.70;16.70;;;5.60;99.90;;;;;;5074187;28;20221;-64
2022/01/18 07:08:28;;;;;;;31.93;16.93;;;5.60;99.90;;;;;;5075327;28;20231;-64
2022/01/18 07:10:53;;;;;;;32.43;16.40;;;5.60;99.90;;;;;;5075214;28;20188;-64
2022/01/18 07:13:19;;;;;;;23.93;13.60;;;5.60;99.90;;;;;;5075230;28;20256;-64
2022/01/18 07:15:45;;;;;;;33.87;14.53;;;5.60;99.90;;;;;;5075184;28;20236;-65
2022/01/18 07:18:11;;;;;;;27.13;13.43;;;5.60;99.90;;;;;;5073748;28;20189;-64
2022/01/18 07:20:40;;;;;;;27.40;14.03;;;5.60;99.90;;;;;;5075514;28;20229;-65
2022/01/18 07:23:07;;;;;;;24.83;12.90;;;5.60;99.90;;;;;;5075447;28;20158;-65
2022/01/18 07:25:33;;;;;;;30.90;13.60;;;5.60;99.90;;;;;;5075016;28;20662;-65
2022/01/18 07:27:59;;;;;;;23.90;13.20;;;5.60;99.90;;;;;;5075036;28;20197;-64
2022/01/18 07:30:25;;;;;;;27.77;13.30;;;5.60;99.90;;;;;;5074956;28;20181;-67
2022/01/18 07:32:51;;;;;;;22.93;13.30;;;5.60;99.90;;;;;;5075440;28;20170;-66
2022/01/18 07:35:17;;;;;;;24.67;12.60;;;5.60;99.90;;;;;;5073669;28;20201;-66
2022/01/18 07:37:48;;;;;;;22.67;12.83;;;5.60;99.90;;;;;;5073465;28;20250;-66
2022/01/18 07:40:38;;;;;;;16.53;11.50;;;5.60;99.90;;;;;;5075845;28;20219;-64
2022/01/18 07:43:30;;;;;;;25.03;14.43;;;5.60;99.90;;;;;;5074990;28;20635;-65
2022/01/18 07:45:56;;;;;;;25.17;13.07;;;5.60;99.90;;;;;;5073830;28;20678;-66
2022/01/18 07:48:24;;;;;;;26.87;14.03;;;5.60;99.90;;;;;;5074769;28;20728;-64
2022/01/18 07:50:52;;;;;;;24.33;14.30;;;5.60;99.90;;;;;;5074712;28;20215;-64
2022/01/18 07:53:21;;;;;;;28.30;13.23;;;5.60;99.90;;;;;;5074428;28;20201;-66
2022/01/18 07:55:50;;;;;;;42.27;16.03;;;5.60;99.90;;;;;;5073052;28;20576;-65
2022/01/18 07:58:21;;;;;;;27.50;13.67;;;5.60;99.90;;;;;;5074343;28;20193;-66
2022/01/18 08:00:50;;;;;;;23.50;13.90;;;5.70;99.90;;;;;;5074460;28;20233;-66
2022/01/18 08:03:19;;;;;;;23.77;12.87;;;5.70;99.90;;;;;;5074209;28;20182;-66
2022/01/18 08:05:47;;;;;;;35.57;15.40;;;5.70;99.90;;;;;;5074166;28;20268;-66
2022/01/18 08:08:16;;;;;;;37.17;16.93;;;5.70;99.90;;;;;;5074119;28;20198;-66
2022/01/18 08:10:45;;;;;;;31.57;17.67;;;5.70;99.90;;;;;;5074618;28;20589;-66
2022/01/18 08:13:13;;;;;;;36.47;18.43;;;5.70;99.90;;;;;;5072741;28;20642;-66
2022/01/18 08:15:41;;;;;;;40.63;18.87;;;5.70;99.90;;;;;;5073952;28;20609;-66
2022/01/18 08:18:14;;;;;;;41.93;18.10;;;5.70;99.90;;;;;;5072427;28;20265;-66
2022/01/18 08:20:43;;;;;;;35.37;17.77;;;5.70;99.90;;;;;;5074014;28;20185;-66
2022/01/18 08:23:09;;;;;;;44.70;17.77;;;5.70;99.90;;;;;;5073871;28;20185;-66
2022/01/18 08:25:35;;;;;;;42.17;18.67;;;5.70;99.90;;;;;;5074324;28;20197;-66
2022/01/18 08:28:02;;;;;;;44.83;17.57;;;5.80;99.90;;;;;;5072362;28;20219;-66
2022/01/18 08:30:28;;;;;;;44.87;18.43;;;5.70;99.90;;;;;;5074365;28;20165;-66
2022/01/18 08:32:55;;;;;;;40.47;18.30;;;5.80;99.90;;;;;;5074010;28;20201;-66
2022/01/18 08:35:22;;;;;;;40.37;17.93;;;5.80;99.90;;;;;;5073836;28;20194;-66
2022/01/18 08:37:51;;;;;;;46.37;19.80;;;5.80;99.90;;;;;;5073908;28;20162;-66
2022/01/18 08:40:17;;;;;;;45.67;19.63;;;5.80;99.90;;;;;;5073555;28;20209;-65
2022/01/18 08:42:45;;;;;;;41.97;21.43;;;5.80;99.90;;;;;;5073958;28;20186;-64
2022/01/18 08:45:11;;;;;;;48.37;20.10;;;5.90;99.90;;;;;;5072447;28;20626;-64
2022/01/18 08:47:37;;;;;;;41.63;19.60;;;5.90;99.90;;;;;;5072422;28;20184;-64
2022/01/18 08:50:04;;;;;;;46.03;19.23;;;5.90;99.90;;;;;;5072444;28;20627;-64
2022/01/18 08:52:30;;;;;;;46.90;19.10;;;5.90;99.90;;;;;;5074098;28;20170;-64
2022/01/18 08:54:56;;;;;;;40.80;19.67;;;6.00;99.90;;;;;;5073459;28;20655;-65
2022/01/18 08:57:22;;;;;;;47.47;20.30;;;6.10;99.90;;;;;;5073498;28;20678;-64
2022/01/18 08:59:49;;;;;;;43.10;19.90;;;6.10;99.90;;;;;;5072215;28;20174;-64
2022/01/18 09:02:16;;;;;;;39.37;18.43;;;6.10;99.90;;;;;;5073741;28;20197;-64
2022/01/18 09:04:45;;;;;;;45.97;18.27;;;6.10;99.90;;;;;;5073351;28;20177;-64
2022/01/18 09:07:11;;;;;;;41.80;17.53;;;6.20;99.90;;;;;;5073272;28;20169;-64
2022/01/18 09:09:40;;;;;;;42.23;20.10;;;6.20;99.90;;;;;;5073382;28;20639;-64
2022/01/18 09:12:11;;;;;;;49.00;20.47;;;6.20;99.90;;;;;;5072050;28;20219;-64
2022/01/18 09:14:38;;;;;;;53.63;21.67;;;6.30;99.90;;;;;;5073625;28;20244;-64
2022/01/18 09:17:04;;;;;;;52.00;21.00;;;6.30;99.90;;;;;;5073264;28;20181;-64
2022/01/18 09:19:30;;;;;;;38.37;18.90;;;6.30;99.90;;;;;;5073450;28;20261;-64
2022/01/18 09:21:57;;;;;;;49.40;18.30;;;6.30;99.90;;;;;;5073942;28;20201;-64
2022/01/18 09:24:23;;;;;;;37.93;19.23;;;6.30;99.90;;;;;;5072835;28;20181;-64
2022/01/18 09:26:49;;;;;;;37.77;18.10;;;6.40;99.90;;;;;;5073829;28;20224;-64
2022/01/18 09:29:15;;;;;;;47.80;19.27;;;6.40;99.90;;;;;;5073417;28;20185;-64
2022/01/18 09:31:41;;;;;;;47.83;19.07;;;6.40;99.90;;;;;;5077291;28;20178;-64
2022/01/18 09:34:07;;;;;;;51.67;19.63;;;6.40;99.90;;;;;;5077789;28;20185;-64
2022/01/18 09:36:33;;;;;;;43.03;19.87;;;6.40;99.90;;;;;;5077130;28;20201;-64
2022/01/18 09:38:59;;;;;;;43.43;18.50;;;6.40;99.90;;;;;;5075928;28;20235;-64
2022/01/18 09:41:29;;;;;;;46.90;18.93;;;6.40;99.90;;;;;;5077001;28;20570;-64
2022/01/18 09:43:55;;;;;;;44.70;19.93;;;6.40;99.90;;;;;;5077644;28;20165;-64
2022/01/18 09:46:27;;;;;;;37.63;19.67;;;6.40;99.90;;;;;;5075612;28;20201;-64
2022/01/18 09:48:54;;;;;;;39.00;18.63;;;6.30;99.90;;;;;;5077181;28;20240;-64
2022/01/18 09:51:20;;;;;;;38.40;19.13;;;6.30;99.90;;;;;;5075644;28;20178;-64
2022/01/18 09:53:46;;;;;;;44.30;19.97;;;6.30;99.90;;;;;;5077091;28;20178;-64
2022/01/18 09:56:12;;;;;;;43.07;20.40;;;6.40;99.90;;;;;;5075413;28;20575;-64
2022/01/18 09:58:38;;;;;;;42.77;19.00;;;6.50;99.90;;;;;;5076644;28;20177;-64
2022/01/18 10:01:04;;;;;;;42.67;19.60;;;6.50;99.90;;;;;;5076553;28;20750;-64
2022/01/18 10:03:35;;;;;;;46.20;21.10;;;6.40;99.90;;;;;;5076695;28;20178;-64
2022/01/18 10:06:02;;;;;;;43.63;19.87;;;6.50;99.90;;;;;;5075181;28;20239;-64
2022/01/18 10:08:28;;;;;;;45.60;19.93;;;6.50;99.90;;;;;;5076426;28;20174;-64
2022/01/18 10:10:57;;;;;;;40.37;18.53;;;6.50;99.90;;;;;;5075502;28;20181;-64
2022/01/18 10:13:34;;;;;;;36.00;19.27;;;6.50;99.90;;;;;;5076433;28;20166;-64
2022/01/18 10:16:10;;;;;;;40.63;20.50;;;6.50;99.90;;;;;;5075064;28;20205;-64
2022/01/18 10:18:49;;;;;;;39.10;19.47;;;6.50;99.90;;;;;;5076870;28;20158;-64
2022/01/18 10:21:35;;;;;;;41.57;20.20;;;6.60;99.90;;;;;;5075200;28;20653;-64
2022/01/18 10:24:17;;;;;;;44.63;20.33;;;6.60;99.90;;;;;;5076606;28;20174;-64
2022/01/18 10:26:45;;;;;;;47.60;21.17;;;6.70;99.90;;;;;;5074860;28;20217;-64
2022/01/18 10:29:12;;;;;;;39.87;18.53;;;6.70;99.90;;;;;;5076188;28;20209;-64
2022/01/18 10:31:58;;;;;;;39.07;19.20;;;6.70;99.90;;;;;;5076347;28;20182;-64
2022/01/18 10:34:43;;;;;;;35.60;17.03;;;6.70;99.90;;;;;;5074704;28;20261;-64
2022/01/18 10:37:21;;;;;;;32.57;17.50;;;6.80;99.90;;;;;;5075024;28;20227;-65
2022/01/18 10:39:54;;;;;;;37.70;17.07;;;6.80;99.90;;;;;;5076427;28;20185;-64
2022/01/18 10:42:30;;;;;;;38.20;17.23;;;6.80;99.90;;;;;;5076230;28;20247;-64
2022/01/18 10:45:03;;;;;;;42.37;17.53;;;6.90;99.90;;;;;;5075900;28;20197;-64
2022/01/18 10:47:28;;;;;;;33.83;16.93;;;6.90;99.90;;;;;;5075826;28;20184;-64
2022/01/18 10:49:54;;;;;;;36.77;18.20;;;6.90;99.90;;;;;;5075771;28;20174;-64
2022/01/18 10:52:26;;;;;;;30.43;16.37;;;7.00;99.90;;;;;;5074492;28;20197;-64
2022/01/18 10:54:58;;;;;;;34.30;17.03;;;7.10;99.90;;;;;;5074367;28;20701;-65
2022/01/18 10:57:39;;;;;;;35.13;16.73;;;7.10;99.90;;;;;;5074343;28;20169;-65
2022/01/18 11:00:11;;;;;;;34.80;17.90;;;7.10;99.90;;;;;;5075936;28;20158;-66
2022/01/18 11:02:42;;;;;;;40.20;17.57;;;7.10;99.90;;;;;;5076076;28;20567;-66
2022/01/18 11:05:25;;;;;;;43.67;18.90;;;7.10;99.90;;;;;;5075554;28;20186;-66
2022/01/18 11:07:53;;;;;;;35.77;17.40;;;7.10;99.90;;;;;;5075427;28;20222;-66
2022/01/18 11:10:21;;;;;;;34.87;16.30;;;7.20;99.90;;;;;;5074100;28;20178;-66
2022/01/18 11:12:51;;;;;;;29.70;17.13;;;7.20;99.90;;;;;;5073978;28;20185;-66
2022/01/18 11:15:20;;;;;;;38.70;16.80;;;7.20;99.90;;;;;;5075076;28;20197;-66
2022/01/18 11:17:50;;;;;;;38.20;17.67;;;7.20;99.90;;;;;;5075151;28;20185;-66
2022/01/18 11:20:20;;;;;;;35.03;16.57;;;7.20;99.90;;;;;;5075562;28;20181;-66
2022/01/18 11:22:49;;;;;;;34.97;15.77;;;7.20;99.90;;;;;;5075123;28;20177;-66
2022/01/18 11:25:15;;;;;;;30.07;14.97;;;7.20;99.90;;;;;;5075057;28;20192;-66
2022/01/18 11:27:47;;;;;;;26.73;14.20;;;7.20;99.90;;;;;;5074988;28;20192;-66
2022/01/18 11:30:13;;;;;;;28.03;12.90;;;7.20;99.90;;;;;;5075162;28;20581;-66
2022/01/18 11:32:39;;;;;;;26.10;13.53;;;7.20;99.90;;;;;;5073717;28;20211;-66
2022/01/18 11:35:31;;;;;;;23.70;11.00;;;7.30;99.90;;;;;;5075009;28;20658;-66
2022/01/18 11:38:14;;;;;;;22.03;12.07;;;7.30;99.90;;;;;;5075294;28;20525;-66
2022/01/18 11:40:55;;;;;;;29.23;11.73;;;7.30;99.90;;;;;;5074964;28;20232;-66
2022/01/18 11:43:35;;;;;;;29.53;10.60;;;7.30;99.90;;;;;;5074185;28;20185;-66
2022/01/18 11:46:24;;;;;;;24.40;11.40;;;7.40;99.90;;;;;;5073306;28;20194;-66
2022/01/18 11:49:00;;;;;;;27.27;12.20;;;7.50;99.90;;;;;;5073270;28;20655;-66
2022/01/18 11:51:48;;;;;;;27.27;12.50;;;7.50;99.90;;;;;;5072685;28;20173;-67
2022/01/18 11:54:57;;;;;;;24.80;12.13;;;7.50;99.90;;;;;;5073238;28;20247;-66
2022/01/18 11:57:22;;;;;;;21.33;11.20;;;7.50;99.90;;;;;;5073135;28;20211;-66
2022/01/18 12:00:11;;;;;;;28.13;11.07;;;7.60;99.90;;;;;;5074277;28;20189;-66
2022/01/18 12:02:42;;;;;;;19.23;10.60;;;7.80;99.90;;;;;;5073888;28;20194;-66
2022/01/18 12:05:16;;;;;;;20.33;11.00;;;7.90;99.90;;;;;;5074366;28;20197;-66
2022/01/18 12:07:44;;;;;;;20.60;10.07;;;7.90;99.90;;;;;;5072898;28;20166;-66
2022/01/18 12:12:58;;;;;;;27.40;11.83;;;8.00;99.90;;;;;;5073667;28;20185;-66
2022/01/18 12:15:26;;;;;;;16.97;10.00;;;7.90;99.90;;;;;;5073927;28;20189;-66
2022/01/18 12:17:53;;;;;;;19.20;10.10;;;7.90;99.90;;;;;;5073941;28;20174;-66
2022/01/18 12:20:43;;;;;;;26.47;12.90;;;7.80;99.90;;;;;;5073897;28;20177;-66
2022/01/18 12:23:17;;;;;;;24.23;13.10;;;7.80;99.90;;;;;;5074154;28;20495;-66
2022/01/18 12:25:55;;;;;;;25.07;11.63;;;7.70;99.90;;;;;;5073949;28;20564;-67
2022/01/18 12:32:04;;;;;;;25.67;11.10;;;7.70;99.90;;;;;;5074095;28;20173;-66
2022/01/18 12:37:07;;;;;;;18.03;9.30;;;7.60;99.90;;;;;;5074286;28;20292;-63
2022/01/18 12:45:12;;;;;;;21.83;10.03;;;7.50;99.90;;;;;;5074006;28;20193;-64
2022/01/18 12:47:42;;;;;;;16.87;8.97;;;7.40;99.90;;;;;;5074213;28;20158;-64
2022/01/18 12:50:11;;;;;;;17.10;10.00;;;7.50;99.90;;;;;;5074046;28;20188;-64
2022/01/18 12:52:54;;;;;;;20.97;10.03;;;7.50;99.90;;;;;;5073906;28;20173;-64
2022/01/18 12:55:32;;;;;;;20.07;8.47;;;7.50;99.90;;;;;;5068390;28;20204;-64
2022/01/18 12:57:59;;;;;;;19.20;8.80;;;7.60;99.90;;;;;;5058450;28;20200;-64
2022/01/18 13:00:24;;;;;;;22.40;8.23;;;7.60;99.90;;;;;;5060893;28;20193;-65
2022/01/18 13:02:50;;;;;;;17.53;7.37;;;7.60;99.90;;;;;;5063294;28;20224;-64
2022/01/18 13:05:16;;;;;;;13.40;7.47;;;7.50;99.90;;;;;;5062993;28;20681;-65
2022/01/18 13:07:52;;;;;;;18.97;7.67;;;7.50;99.90;;;;;;5060049;28;20174;-65
2022/01/18 13:10:19;;;;;;;13.93;8.03;;;7.60;99.90;;;;;;5055141;28;20536;-65
2022/01/18 13:12:46;;;;;;;10.53;7.37;;;7.60;99.90;;;;;;5055216;28;20180;-66
2022/01/18 13:15:22;;;;;;;19.43;8.03;;;7.70;99.90;;;;;;5061941;28;20220;-64
2022/01/18 13:23:53;;;;;;;11.93;7.17;;;7.70;99.90;;;;;;5060435;28;20645;-64
2022/01/18 13:26:15;;;;;;;16.07;7.20;;;7.70;99.90;;;;;;5061854;28;20197;-65
2022/01/18 13:28:41;;;;;;;9.63;6.20;;;7.70;99.90;;;;;;5066295;28;20514;-64
2022/01/18 13:31:15;;;;;;;17.30;6.17;;;7.70;99.90;;;;;;5066119;28;20178;-64
2022/01/18 13:33:50;;;;;;;12.33;6.10;;;7.70;99.90;;;;;;5053226;28;20186;-64
2022/01/18 13:36:16;;;;;;;14.90;7.17;;;7.70;99.90;;;;;;5065866;28;20197;-66
2022/01/18 13:38:42;;;;;;;14.73;7.33;;;7.60;99.90;;;;;;5069131;28;20182;-66
2022/01/18 13:41:08;;;;;;;16.73;8.03;;;7.60;99.90;;;;;;5059087;28;20189;-66
2022/01/18 13:43:34;;;;;;;13.57;7.37;;;7.60;99.90;;;;;;5067853;28;20579;-66
2022/01/18 13:46:00;;;;;;;16.07;7.40;;;7.60;99.90;;;;;;5055120;28;20670;-67
2022/01/18 13:48:33;;;;;;;17.50;7.80;;;7.60;99.90;;;;;;5051698;28;20186;-66
2022/01/18 13:51:14;;;;;;;17.90;8.67;;;7.60;99.90;;;;;;5069070;28;20216;-66
2022/01/18 13:53:41;;;;;;;12.53;8.00;;;7.60;99.90;;;;;;5058982;28;20178;-66
2022/01/18 13:56:17;;;;;;;15.87;7.57;;;7.60;99.90;;;;;;5059800;28;20213;-66
2022/01/18 13:58:45;;;;;;;17.83;8.17;;;7.60;99.90;;;;;;5055766;28;20174;-67
2022/01/18 14:01:14;;;;;;;13.60;7.33;;;7.60;99.90;;;;;;5070396;28;20742;-67
2022/01/18 14:03:48;;;;;;;16.17;8.20;;;7.60;99.90;;;;;;5056635;28;20206;-66
2022/01/18 14:06:15;;;;;;;18.50;9.37;;;7.60;99.90;;;;;;5059037;28;20220;-66
2022/01/18 14:08:43;;;;;;;16.20;8.33;;;7.60;99.90;;;;;;5054692;28;20174;-68
2022/01/18 14:11:10;;;;;;;16.00;8.47;;;7.60;99.90;;;;;;5064397;28;20182;-65
2022/01/18 14:13:38;;;;;;;17.23;8.93;;;7.60;99.90;;;;;;5067552;28;20248;-66
2022/01/18 14:16:45;;;;;;;13.00;7.67;;;7.60;99.90;;;;;;5058565;28;20567;-66
2022/01/18 14:19:10;;;;;;;14.47;8.17;;;7.60;99.90;;;;;;5068770;28;20194;-65
2022/01/18 14:21:42;;;;;;;24.43;9.40;;;7.60;99.90;;;;;;5071785;28;20235;-64
2022/01/18 14:24:33;;;;;;;16.37;9.03;;;7.60;99.90;;;;;;5062456;28;20166;-64
2022/01/18 14:27:01;;;;;;;20.30;11.10;;;7.60;99.90;;;;;;5066453;28;20705;-64
2022/01/18 14:29:30;;;;;;;22.67;11.20;;;7.60;99.90;;;;;;5068858;28;20216;-65